createdAt,value
2019-02-28T00:01:43.255Z,14.23
2019-02-28T00:04:21.575Z,15.10
2019-02-28T00:06:58.574Z,13.83
2019-02-28T00:09:42.576Z,14.43
2019-02-28T00:12:20.023Z,14.83
2019-02-28T00:14:59.321Z,14.57
2019-02-28T00:17:42.755Z,13.93
2019-02-28T00:20:12.806Z,13.77
2019-02-28T00:22:50.585Z,14.47
2019-02-28T00:25:37.687Z,13.90
2019-02-28T00:28:13.594Z,13.67
2019-02-28T00:30:53.598Z,13.70
2019-02-28T00:33:32.595Z,13.43
2019-02-28T00:36:10.354Z,13.93
2019-02-28T00:38:49.599Z,14.00
2019-02-28T00:41:27.077Z,14.33
2019-02-28T00:44:08.608Z,14.50
2019-02-28T00:46:48.603Z,12.63
2019-02-28T00:49:28.605Z,13.90
2019-02-28T00:52:07.605Z,13.53
2019-02-28T00:54:51.843Z,13.27
2019-02-28T00:57:24.695Z,12.87
2019-02-28T01:00:05.555Z,13.43
2019-02-28T01:02:43.620Z,13.30
2019-02-28T01:05:23.730Z,13.50
2019-02-28T01:08:02.070Z,13.10
2019-02-28T01:10:40.174Z,12.80
2019-02-28T01:13:18.075Z,13.27
2019-02-28T01:15:59.633Z,13.03
2019-02-28T01:18:35.376Z,13.13
2019-02-28T01:21:08.092Z,12.63
2019-02-28T01:23:43.537Z,12.60
2019-02-28T01:26:23.664Z,12.33
2019-02-28T01:29:01.845Z,12.87
2019-02-28T01:31:42.521Z,12.30
2019-02-28T01:34:19.137Z,12.17
2019-02-28T01:36:56.321Z,12.97
2019-02-28T01:39:30.814Z,11.90
2019-02-28T01:42:08.134Z,12.47
2019-02-28T01:44:49.663Z,12.80
2019-02-28T01:47:30.663Z,12.50
2019-02-28T01:50:03.577Z,12.63
2019-02-28T01:52:44.469Z,12.57
2019-02-28T01:55:18.560Z,12.67
2019-02-28T01:57:49.000Z,13.20
2019-02-28T02:00:24.500Z,12.80
2019-02-28T02:03:02.672Z,12.20
2019-02-28T02:05:42.672Z,12.83
2019-02-28T02:08:26.130Z,13.27
2019-02-28T02:11:04.696Z,12.87
2019-02-28T02:13:43.158Z,13.03
2019-02-28T02:16:26.999Z,12.73
2019-02-28T02:19:06.702Z,13.23
2019-02-28T02:21:45.464Z,12.67
2019-02-28T02:24:27.719Z,13.23
2019-02-28T02:29:58.704Z,12.60
2019-02-28T02:32:38.714Z,12.70
2019-02-28T02:35:17.718Z,12.37
2019-02-28T02:37:57.734Z,12.67
2019-02-28T02:40:36.726Z,11.67
2019-02-28T02:43:15.199Z,12.53
2019-02-28T02:45:54.722Z,11.97
2019-02-28T02:48:38.612Z,13.07
2019-02-28T02:51:12.648Z,12.10
2019-02-28T02:53:52.727Z,12.47
2019-02-28T02:56:40.626Z,12.30
2019-02-28T02:59:12.337Z,12.30
2019-02-28T03:01:51.167Z,12.87
2019-02-28T03:04:32.730Z,12.13
2019-02-28T03:07:08.727Z,12.57
2019-02-28T03:09:49.727Z,11.87
2019-02-28T03:15:10.756Z,12.70
2019-02-28T03:17:49.136Z,12.70
2019-02-28T03:20:27.778Z,12.07
2019-02-28T03:23:08.786Z,12.27
2019-02-28T03:25:46.797Z,12.43
2019-02-28T03:28:28.103Z,12.17
2019-02-28T03:31:14.468Z,12.40
2019-02-28T03:33:48.300Z,12.07
2019-02-28T03:36:25.290Z,11.30
2019-02-28T03:39:03.808Z,12.07
2019-02-28T03:41:40.679Z,12.20
2019-02-28T03:44:21.299Z,11.83
2019-02-28T03:47:02.844Z,11.93
2019-02-28T03:49:48.661Z,11.63
2019-02-28T03:52:25.838Z,12.10
2019-02-28T03:55:04.740Z,10.83
2019-02-28T03:57:45.835Z,11.63
2019-02-28T04:00:32.812Z,11.13
2019-02-28T04:03:06.315Z,11.00
2019-02-28T04:05:42.071Z,11.70
2019-02-28T04:08:14.742Z,10.63
2019-02-28T04:10:54.774Z,11.40
2019-02-28T04:13:26.854Z,11.27
2019-02-28T04:16:09.237Z,10.90
2019-02-28T04:18:48.296Z,10.70
2019-02-28T04:21:26.400Z,10.53
2019-02-28T04:24:12.618Z,10.33
2019-02-28T04:26:47.323Z,10.00
2019-02-28T04:29:30.312Z,9.97
2019-02-28T04:32:03.332Z,10.03
2019-02-28T04:34:45.844Z,10.03
2019-02-28T04:37:23.137Z,9.37
2019-02-28T04:40:01.891Z,9.47
2019-02-28T04:42:39.893Z,9.90
2019-02-28T04:45:26.179Z,9.67
2019-02-28T04:48:13.657Z,9.17
2019-02-28T04:50:42.670Z,9.47
2019-02-28T04:53:20.093Z,8.90
2019-02-28T04:55:57.347Z,9.30
2019-02-28T04:58:39.351Z,8.50
2019-02-28T05:01:12.345Z,8.47
2019-02-28T05:03:49.902Z,8.80
2019-02-28T05:06:26.598Z,8.50
2019-02-28T05:09:05.830Z,8.20
2019-02-28T05:11:37.294Z,8.13
2019-02-28T05:14:14.363Z,8.27
2019-02-28T05:16:48.785Z,8.77
2019-02-28T05:19:28.941Z,8.37
2019-02-28T05:22:06.020Z,8.47
2019-02-28T05:24:47.029Z,8.23
2019-02-28T05:27:34.815Z,8.40
2019-02-28T05:30:10.922Z,8.53
2019-02-28T05:32:49.927Z,8.70
2019-02-28T05:35:47.926Z,7.70
2019-02-28T05:38:22.585Z,8.23
2019-02-28T05:41:02.933Z,8.23
2019-02-28T05:43:58.934Z,8.20
2019-02-28T05:46:38.934Z,8.23
2019-02-28T05:49:15.417Z,7.90
2019-02-28T05:51:58.485Z,8.53
2019-02-28T05:54:33.954Z,7.83
2019-02-28T05:57:12.399Z,7.53
2019-02-28T05:59:53.956Z,7.70
2019-02-28T06:02:30.955Z,7.90
2019-02-28T06:05:12.032Z,8.00
2019-02-28T06:07:53.978Z,8.13
2019-02-28T06:10:32.979Z,7.87
2019-02-28T06:13:15.304Z,7.47
2019-02-28T06:15:52.456Z,8.00
2019-02-28T06:18:33.990Z,8.23
2019-02-28T06:21:11.986Z,8.30
2019-02-28T06:23:49.985Z,8.10
2019-02-28T06:26:24.883Z,7.20
2019-02-28T06:29:05.124Z,8.20
2019-02-28T06:31:41.998Z,7.30
2019-02-28T06:34:20.443Z,7.53
2019-02-28T06:37:05.998Z,8.43
2019-02-28T06:39:45.011Z,7.90
2019-02-28T06:42:20.891Z,8.40
2019-02-28T06:45:02.497Z,8.33
2019-02-28T06:47:39.466Z,8.23
2019-02-28T06:50:21.018Z,8.37
2019-02-28T06:52:59.217Z,10.10
2019-02-28T06:55:35.827Z,8.90
2019-02-28T06:58:12.500Z,9.77
2019-02-28T07:00:55.932Z,9.37
2019-02-28T07:03:38.449Z,9.40
2019-02-28T07:06:09.493Z,10.33
2019-02-28T07:08:44.927Z,10.00
2019-02-28T07:11:20.029Z,9.90
2019-02-28T07:13:56.529Z,10.33
2019-02-28T07:16:34.536Z,10.50
2019-02-28T07:19:13.064Z,10.97
2019-02-28T07:21:46.959Z,11.30
2019-02-28T07:24:27.065Z,10.70
2019-02-28T07:27:04.609Z,10.50
2019-02-28T07:29:42.688Z,10.40
2019-02-28T07:32:17.541Z,10.33
2019-02-28T07:34:58.227Z,10.37
2019-02-28T07:37:53.340Z,9.97
2019-02-28T07:40:23.533Z,10.23
2019-02-28T07:43:00.241Z,10.93
2019-02-28T07:45:42.248Z,10.07
2019-02-28T07:48:28.612Z,10.47
2019-02-28T07:51:06.183Z,10.37
2019-02-28T07:53:44.623Z,9.67
2019-02-28T07:56:23.875Z,9.70
2019-02-28T07:59:06.376Z,9.40
2019-02-28T08:01:43.682Z,9.77
2019-02-28T08:04:21.328Z,9.97
2019-02-28T08:07:00.879Z,9.07
2019-02-28T08:09:36.866Z,8.87
2019-02-28T08:12:17.233Z,9.10
2019-02-28T08:15:00.402Z,9.70
2019-02-28T08:17:44.037Z,8.70
2019-02-28T08:20:22.063Z,8.87
2019-02-28T08:22:56.541Z,9.20
2019-02-28T08:25:36.264Z,8.73
2019-02-28T08:28:15.662Z,8.33
2019-02-28T08:30:55.195Z,8.90
2019-02-28T08:33:29.265Z,8.43
2019-02-28T08:36:12.539Z,8.23
2019-02-28T08:38:46.759Z,7.87
2019-02-28T08:41:28.284Z,7.90
2019-02-28T08:44:10.283Z,8.30
2019-02-28T08:46:51.306Z,8.00
2019-02-28T08:49:30.447Z,8.23
2019-02-28T08:52:10.314Z,8.43
2019-02-28T08:54:49.302Z,7.50
2019-02-28T08:57:28.302Z,7.57
2019-02-28T09:00:07.072Z,7.70
2019-02-28T09:02:52.969Z,7.90
2019-02-28T09:05:29.947Z,8.03
2019-02-28T09:08:07.316Z,7.43
2019-02-28T09:10:49.311Z,8.07
2019-02-28T09:13:28.769Z,8.13
2019-02-28T09:16:10.331Z,8.03
2019-02-28T09:18:50.331Z,7.58
2019-02-28T09:21:34.330Z,7.83
2019-02-28T09:24:18.801Z,7.37
2019-02-28T09:27:01.299Z,7.17
2019-02-28T09:29:41.773Z,7.35
2019-02-28T09:32:20.330Z,7.25
2019-02-28T09:34:58.499Z,6.80
2019-02-28T09:37:36.340Z,6.67
2019-02-28T09:40:18.806Z,6.83
2019-02-28T09:42:57.364Z,6.75
2019-02-28T09:45:35.840Z,6.65
2019-02-28T09:48:18.379Z,6.45
2019-02-28T09:50:59.145Z,6.60
2019-02-28T09:53:39.170Z,6.70
2019-02-28T09:56:15.381Z,6.58
2019-02-28T09:58:53.381Z,6.75
2019-02-28T10:01:30.390Z,6.25
2019-02-28T10:04:06.886Z,5.85
2019-02-28T10:06:51.530Z,6.25
2019-02-28T10:09:26.886Z,6.00
2019-02-28T10:12:07.800Z,5.85
2019-02-28T10:14:46.899Z,5.90
2019-02-28T10:17:18.341Z,6.37
2019-02-28T10:19:57.437Z,6.22
2019-02-28T10:22:36.405Z,5.85
2019-02-28T10:25:18.436Z,6.10
2019-02-28T10:28:01.173Z,5.90
2019-02-28T10:30:37.881Z,6.60
2019-02-28T10:33:18.100Z,5.90
2019-02-28T10:35:54.916Z,6.62
2019-02-28T10:38:33.883Z,6.17
2019-02-28T10:41:15.389Z,6.03
2019-02-28T10:43:55.927Z,5.97
2019-02-28T10:46:33.789Z,6.28
2019-02-28T10:49:14.467Z,6.22
2019-02-28T10:51:54.479Z,6.70
2019-02-28T10:54:33.480Z,6.20
2019-02-28T10:57:10.927Z,6.08
2019-02-28T10:59:47.473Z,6.30
2019-02-28T11:02:26.473Z,6.30
2019-02-28T11:05:04.476Z,6.10
2019-02-28T11:07:42.582Z,6.20
2019-02-28T11:10:19.002Z,5.92
2019-02-28T11:12:57.103Z,6.22
2019-02-28T11:15:32.960Z,6.12
2019-02-28T11:18:13.492Z,6.22
2019-02-28T11:20:49.379Z,5.78
2019-02-28T11:23:22.977Z,5.62
2019-02-28T11:26:00.511Z,6.05
2019-02-28T11:28:38.988Z,6.30
2019-02-28T11:31:20.043Z,5.55
2019-02-28T11:33:59.532Z,6.17
2019-02-28T11:36:38.678Z,5.62
2019-02-28T11:39:16.580Z,5.83
2019-02-28T11:41:54.582Z,5.90
2019-02-28T11:44:28.996Z,5.47
2019-02-28T11:49:38.999Z,5.58
2019-02-28T11:52:08.761Z,5.30
2019-02-28T11:54:38.319Z,4.92
2019-02-28T11:57:07.914Z,4.92
2019-02-28T11:59:37.480Z,4.80
2019-02-28T12:02:07.033Z,5.00
2019-02-28T12:04:37.425Z,4.45
2019-02-28T12:07:09.254Z,5.10
2019-02-28T12:09:39.494Z,4.42
2019-02-28T12:12:10.390Z,4.65
2019-02-28T12:14:40.818Z,4.53
2019-02-28T12:17:10.369Z,4.30
2019-02-28T12:19:39.936Z,4.28
2019-02-28T12:22:12.114Z,4.25
2019-02-28T12:24:40.686Z,4.35
2019-02-28T12:27:10.494Z,4.65
2019-02-28T12:29:40.034Z,4.47
2019-02-28T12:32:11.220Z,4.15
2019-02-28T12:34:40.879Z,3.92
2019-02-28T12:37:11.399Z,4.08
2019-02-28T12:39:40.936Z,4.03
2019-02-28T12:42:10.783Z,4.20
2019-02-28T12:44:40.440Z,3.95
2019-02-28T12:47:09.975Z,3.95
2019-02-28T12:49:40.423Z,4.00
2019-02-28T12:52:11.315Z,3.90
2019-02-28T12:54:42.625Z,4.17
2019-02-28T12:57:12.193Z,4.10
2019-02-28T12:59:45.955Z,3.80
2019-02-28T13:02:13.343Z,4.30
2019-02-28T13:04:44.537Z,3.70
2019-02-28T13:07:14.298Z,3.70
2019-02-28T13:09:43.858Z,3.20
2019-02-28T13:12:13.408Z,3.67
2019-02-28T13:14:43.000Z,3.57
2019-02-28T13:17:12.670Z,3.60
2019-02-28T13:19:42.217Z,3.87
2019-02-28T13:22:11.787Z,3.90
2019-02-28T13:24:46.122Z,3.63
2019-02-28T13:27:15.069Z,3.87
2019-02-28T13:29:44.719Z,3.40
2019-02-28T13:32:14.643Z,3.73
2019-02-28T13:34:44.218Z,3.83
2019-02-28T13:37:25.770Z,3.43
2019-02-28T13:39:55.362Z,4.00
2019-02-28T13:42:24.894Z,4.00
2019-02-28T13:44:54.444Z,3.73
2019-02-28T13:47:24.146Z,3.93
2019-02-28T13:49:53.671Z,3.67
2019-02-28T13:52:23.220Z,4.17
2019-02-28T13:54:53.680Z,3.73
2019-02-28T13:57:24.790Z,3.90
2019-02-28T13:59:54.358Z,3.97
2019-02-28T14:02:26.262Z,3.93
2019-02-28T14:04:58.657Z,3.57
2019-02-28T14:07:30.023Z,4.00
2019-02-28T14:09:58.388Z,3.70
2019-02-28T14:12:28.873Z,3.80
2019-02-28T14:14:58.614Z,4.40
2019-02-28T14:17:28.165Z,3.70
2019-02-28T14:19:57.726Z,3.67
2019-02-28T14:22:27.486Z,4.07
2019-02-28T14:24:57.036Z,3.80
2019-02-28T14:27:28.522Z,3.90
2019-02-28T14:29:58.043Z,4.20
2019-02-28T14:32:27.617Z,3.80
2019-02-28T14:34:57.246Z,4.00
2019-02-28T14:37:28.353Z,3.70
2019-02-28T14:39:57.899Z,3.50
2019-02-28T14:42:27.507Z,4.17
2019-02-28T14:44:57.030Z,4.03
2019-02-28T14:47:28.509Z,3.73
2019-02-28T14:49:57.874Z,4.13
2019-02-28T14:52:27.404Z,4.37
2019-02-28T14:54:58.303Z,3.70
2019-02-28T14:57:27.914Z,3.93
2019-02-28T14:59:57.612Z,3.83
2019-02-28T15:02:28.764Z,4.03
2019-02-28T15:04:59.561Z,4.00
2019-02-28T15:07:29.114Z,4.17
2019-02-28T15:09:58.936Z,4.00
2019-02-28T15:12:29.869Z,4.33
2019-02-28T15:14:59.401Z,4.43
2019-02-28T15:17:29.979Z,4.13
2019-02-28T15:19:59.514Z,4.10
2019-02-28T15:22:29.060Z,3.80
2019-02-28T15:24:59.845Z,4.40
2019-02-28T15:27:29.388Z,3.93
2019-02-28T15:29:59.802Z,4.43
2019-02-28T15:32:29.545Z,3.87
2019-02-28T15:35:01.613Z,4.60
2019-02-28T15:37:33.657Z,4.50
2019-02-28T15:40:06.014Z,4.63
2019-02-28T15:42:39.557Z,4.53
2019-02-28T15:45:10.022Z,4.30
2019-02-28T15:47:39.708Z,4.23
2019-02-28T15:50:16.318Z,4.37
2019-02-28T15:52:46.580Z,5.37
2019-02-28T15:55:18.397Z,4.60
2019-02-28T15:57:47.950Z,4.10
2019-02-28T16:00:24.533Z,4.37
2019-02-28T16:02:54.060Z,5.10
2019-02-28T16:05:23.828Z,4.50
2019-02-28T16:07:54.607Z,4.13
2019-02-28T16:10:31.894Z,4.43
2019-02-28T16:12:59.971Z,4.10
2019-02-28T16:15:30.507Z,4.50
2019-02-28T16:18:00.073Z,4.40
2019-02-28T16:20:31.947Z,4.73
2019-02-28T16:23:01.051Z,5.17
2019-02-28T16:25:33.638Z,5.63
2019-02-28T16:28:04.499Z,5.07
2019-02-28T16:30:34.427Z,5.80
2019-02-28T16:33:04.223Z,6.57
2019-02-28T16:35:33.765Z,6.03
2019-02-28T16:38:08.524Z,5.93
2019-02-28T16:40:34.681Z,5.93
2019-02-28T16:43:04.242Z,6.60
2019-02-28T16:45:37.520Z,5.97
2019-02-28T16:48:07.259Z,5.73
2019-02-28T16:50:37.743Z,5.90
2019-02-28T16:53:07.295Z,6.40
2019-02-28T16:55:36.841Z,6.33
2019-02-28T16:58:06.450Z,6.40
2019-02-28T17:00:35.986Z,6.67
2019-02-28T17:03:07.384Z,6.27
2019-02-28T17:05:36.900Z,6.53
2019-02-28T17:08:06.903Z,7.17
2019-02-28T17:10:42.005Z,7.10
2019-02-28T17:13:26.844Z,6.50
2019-02-28T17:16:01.466Z,6.70
2019-02-28T17:18:33.592Z,6.80
2019-02-28T17:21:03.146Z,7.30
2019-02-28T17:23:36.788Z,7.03
2019-02-28T17:26:05.355Z,7.90
2019-02-28T17:28:39.460Z,7.13
2019-02-28T17:31:11.618Z,7.73
2019-02-28T17:33:43.335Z,7.47
2019-02-28T17:36:14.003Z,9.27
2019-02-28T17:38:43.946Z,9.53
2019-02-28T17:41:13.514Z,9.07
2019-02-28T17:43:43.943Z,9.77
2019-02-28T17:46:15.729Z,11.17
2019-02-28T17:49:03.573Z,10.57
2019-02-28T17:51:36.517Z,10.97
2019-02-28T17:54:17.272Z,10.53
2019-02-28T17:57:05.891Z,10.67
2019-02-28T17:59:56.054Z,10.50
2019-02-28T18:02:50.528Z,11.27
2019-02-28T18:05:38.659Z,11.30
2019-02-28T18:08:16.942Z,11.10
2019-02-28T18:11:10.412Z,10.77
2019-02-28T18:13:52.218Z,11.50
2019-02-28T18:16:43.089Z,11.80
2019-02-28T18:19:41.404Z,11.93
2019-02-28T18:22:22.681Z,12.67
2019-02-28T18:25:21.325Z,12.47
2019-02-28T18:28:12.092Z,12.90
2019-02-28T18:31:01.339Z,13.30
2019-02-28T18:33:31.415Z,13.03
2019-02-28T18:36:01.262Z,12.53
2019-02-28T18:38:30.840Z,12.63
2019-02-28T18:41:05.547Z,13.30
2019-02-28T18:43:31.921Z,13.33
2019-02-28T18:46:01.613Z,12.33
2019-02-28T18:48:31.262Z,12.67
2019-02-28T18:51:00.845Z,13.57
2019-02-28T18:53:30.457Z,12.77
2019-02-28T18:56:00.020Z,13.50
2019-02-28T18:58:29.568Z,13.53
2019-02-28T19:00:59.453Z,13.30
2019-02-28T19:03:29.012Z,13.33
2019-02-28T19:05:58.559Z,13.80
2019-02-28T19:08:29.164Z,13.77
2019-02-28T19:10:59.004Z,14.30
2019-02-28T19:13:28.673Z,13.10
2019-02-28T19:15:58.484Z,13.80
2019-02-28T19:18:28.439Z,13.27
2019-02-28T19:20:57.986Z,12.93
2019-02-28T19:23:27.676Z,13.53
2019-02-28T19:25:57.365Z,13.40
2019-02-28T19:28:26.945Z,13.40
2019-02-28T19:30:56.673Z,12.43
2019-02-28T19:33:26.223Z,12.90
2019-02-28T19:35:55.793Z,12.20
2019-02-28T19:38:25.438Z,12.23
2019-02-28T19:40:56.025Z,12.60
2019-02-28T19:43:27.326Z,12.87
2019-02-28T19:45:56.905Z,13.27
2019-02-28T19:48:30.595Z,12.30
2019-02-28T19:51:00.158Z,13.00
2019-02-28T19:53:30.123Z,11.90
2019-02-28T19:56:00.110Z,12.63
2019-02-28T19:58:30.751Z,12.63
2019-02-28T20:01:00.319Z,12.03
2019-02-28T20:03:29.919Z,12.10
2019-02-28T20:05:59.480Z,12.80
2019-02-28T20:08:29.870Z,12.87
2019-02-28T20:11:00.595Z,12.10
2019-02-28T20:13:30.138Z,12.57
2019-02-28T20:16:00.045Z,12.53
2019-02-28T20:18:29.975Z,12.10
2019-02-28T20:20:59.884Z,12.27
2019-02-28T20:23:29.434Z,12.67
2019-02-28T20:25:59.041Z,12.37
2019-02-28T20:28:28.623Z,13.03
2019-02-28T20:30:58.137Z,12.03
2019-02-28T20:33:27.735Z,11.50
2019-02-28T20:35:57.559Z,11.83
2019-02-28T20:38:27.467Z,12.17
2019-02-28T20:40:58.045Z,11.73
2019-02-28T20:43:27.645Z,11.30
2019-02-28T20:45:57.410Z,11.50
2019-02-28T20:48:26.996Z,12.57
2019-02-28T20:50:57.543Z,11.83
2019-02-28T20:53:27.097Z,12.00
2019-02-28T20:55:56.714Z,11.53
2019-02-28T20:58:26.267Z,11.50
2019-02-28T21:00:55.811Z,11.97
2019-02-28T21:03:26.490Z,11.23
2019-02-28T21:05:56.022Z,11.47
2019-02-28T21:08:25.600Z,10.80
2019-02-28T21:10:57.871Z,10.90
2019-02-28T21:13:27.769Z,10.93
2019-02-28T21:15:58.825Z,10.50
2019-02-28T21:18:30.365Z,11.63
2019-02-28T21:21:00.078Z,11.10
2019-02-28T21:23:33.383Z,11.43
2019-02-28T21:26:10.395Z,10.40
2019-02-28T21:28:43.642Z,11.30
2019-02-28T21:31:13.244Z,11.50
2019-02-28T21:33:43.361Z,10.93
2019-02-28T21:36:13.162Z,11.20
2019-02-28T21:38:42.743Z,11.17
2019-02-28T21:41:13.207Z,11.63
2019-02-28T21:43:42.860Z,11.17
2019-02-28T21:46:13.634Z,11.07
2019-02-28T21:48:43.177Z,11.07
2019-02-28T21:51:12.748Z,10.90
2019-02-28T21:53:42.433Z,11.30
2019-02-28T21:56:11.965Z,10.83
2019-02-28T21:58:41.531Z,11.30
2019-02-28T22:01:11.106Z,11.30
2019-02-28T22:03:40.662Z,11.23
2019-02-28T22:06:10.235Z,11.50
2019-02-28T22:08:39.829Z,10.73
2019-02-28T22:11:09.675Z,10.97
2019-02-28T22:13:39.227Z,10.70
2019-02-28T22:16:08.808Z,10.67
2019-02-28T22:18:38.367Z,11.30
2019-02-28T22:21:07.921Z,11.27
2019-02-28T22:23:37.504Z,11.17
2019-02-28T22:26:07.061Z,11.40
2019-02-28T22:28:36.620Z,11.50
2019-02-28T22:31:07.995Z,12.00
2019-02-28T22:33:39.103Z,11.40
2019-02-28T22:36:14.634Z,11.27
2019-02-28T22:38:44.175Z,11.53
2019-02-28T22:41:13.727Z,11.50
2019-02-28T22:43:43.312Z,11.40
2019-02-28T22:46:12.911Z,11.50
2019-02-28T22:48:42.528Z,11.30
2019-02-28T22:51:12.331Z,11.80
2019-02-28T22:53:41.865Z,10.83
2019-02-28T22:56:11.439Z,10.60
2019-02-28T22:58:41.010Z,11.33
2019-02-28T23:01:14.730Z,11.00
2019-02-28T23:03:44.510Z,11.67
2019-02-28T23:06:14.206Z,11.23
2019-02-28T23:08:43.773Z,11.73
2019-02-28T23:11:13.390Z,11.13
2019-02-28T23:13:42.949Z,10.60
2019-02-28T23:16:12.493Z,11.40
2019-02-28T23:18:42.445Z,11.70
2019-02-28T23:21:12.350Z,11.80
2019-02-28T23:23:41.904Z,11.23
2019-02-28T23:26:13.279Z,11.43
2019-02-28T23:28:46.333Z,10.93
2019-02-28T23:31:28.056Z,10.80
2019-02-28T23:34:13.877Z,10.50
2019-02-28T23:36:43.478Z,11.07
2019-02-28T23:39:14.111Z,10.57
2019-02-28T23:41:43.665Z,10.73
2019-02-28T23:44:13.229Z,9.77
2019-02-28T23:46:42.762Z,9.97
2019-02-28T23:49:12.311Z,10.50
2019-02-28T23:51:42.122Z,9.60
2019-02-28T23:54:11.668Z,9.47
2019-02-28T23:56:41.215Z,9.90
2019-02-28T23:59:10.802Z,9.80
